sensor_id;sensor_type;location;lat;lon;timestamp;temperature;humidity
1367;DHT22;16877;48.810;9.282;2023-02-26T00:02:11;14.90;44.40
1367;DHT22;16877;48.810;9.282;2023-02-26T00:04:38;14.90;44.50
1367;DHT22;16877;48.810;9.282;2023-02-26T00:07:06;14.80;44.40
1367;DHT22;16877;48.810;9.282;2023-02-26T00:09:33;14.80;44.20
1367;DHT22;16877;48.810;9.282;2023-02-26T00:12:01;14.70;44.00
1367;DHT22;16877;48.810;9.282;2023-02-26T00:14:31;14.70;43.90
1367;DHT22;16877;48.810;9.282;2023-02-26T00:17:20;14.70;43.90
1367;DHT22;16877;48.810;9.282;2023-02-26T00:20:06;14.60;43.80
1367;DHT22;16877;48.810;9.282;2023-02-26T00:22:35;14.60;44.40
1367;DHT22;16877;48.810;9.282;2023-02-26T00:25:02;14.60;44.00
1367;DHT22;16877;48.810;9.282;2023-02-26T00:27:30;14.50;43.80
1367;DHT22;16877;48.810;9.282;2023-02-26T00:30:01;14.50;43.60
1367;DHT22;16877;48.810;9.282;2023-02-26T00:32:32;14.50;43.60
1367;DHT22;16877;48.810;9.282;2023-02-26T00:35:00;14.40;43.60
1367;DHT22;16877;48.810;9.282;2023-02-26T00:37:36;14.40;43.50
1367;DHT22;16877;48.810;9.282;2023-02-26T00:40:14;14.40;43.50
1367;DHT22;16877;48.810;9.282;2023-02-26T00:42:45;14.30;43.40
1367;DHT22;16877;48.810;9.282;2023-02-26T00:45:14;14.30;43.30
1367;DHT22;16877;48.810;9.282;2023-02-26T00:47:47;14.30;43.40
1367;DHT22;16877;48.810;9.282;2023-02-26T00:50:17;14.30;43.30
1367;DHT22;16877;48.810;9.282;2023-02-26T00:52:52;14.20;43.30
1367;DHT22;16877;48.810;9.282;2023-02-26T00:55:21;14.20;43.30
1367;DHT22;16877;48.810;9.282;2023-02-26T00:57:49;14.20;43.30
1367;DHT22;16877;48.810;9.282;2023-02-26T01:00:19;14.20;43.30
1367;DHT22;16877;48.810;9.282;2023-02-26T01:02:48;14.20;43.40
1367;DHT22;16877;48.810;9.282;2023-02-26T01:05:16;14.20;43.40
1367;DHT22;16877;48.810;9.282;2023-02-26T01:07:51;14.20;43.50
1367;DHT22;16877;48.810;9.282;2023-02-26T01:10:20;14.20;43.50
1367;DHT22;16877;48.810;9.282;2023-02-26T01:12:49;14.20;43.50
1367;DHT22;16877;48.810;9.282;2023-02-26T01:15:20;14.20;43.60
1367;DHT22;16877;48.810;9.282;2023-02-26T01:17:50;14.20;43.50
1367;DHT22;16877;48.810;9.282;2023-02-26T01:20:21;14.10;43.40
1367;DHT22;16877;48.810;9.282;2023-02-26T01:22:52;14.10;43.30
1367;DHT22;16877;48.810;9.282;2023-02-26T01:25:23;14.10;43.40
1367;DHT22;16877;48.810;9.282;2023-02-26T01:27:52;14.10;43.40
1367;DHT22;16877;48.810;9.282;2023-02-26T01:30:25;14.10;43.30
1367;DHT22;16877;48.810;9.282;2023-02-26T01:32:58;14.10;43.40
1367;DHT22;16877;48.810;9.282;2023-02-26T01:35:39;14.10;43.40
1367;DHT22;16877;48.810;9.282;2023-02-26T01:38:19;14.10;43.40
1367;DHT22;16877;48.810;9.282;2023-02-26T01:41:13;14.00;43.30
1367;DHT22;16877;48.810;9.282;2023-02-26T01:43:56;14.00;43.40
1367;DHT22;16877;48.810;9.282;2023-02-26T01:46:32;14.00;43.30
1367;DHT22;16877;48.810;9.282;2023-02-26T01:49:02;14.00;43.40
1367;DHT22;16877;48.810;9.282;2023-02-26T01:51:46;14.00;43.30
1367;DHT22;16877;48.810;9.282;2023-02-26T01:54:15;14.00;43.40
1367;DHT22;16877;48.810;9.282;2023-02-26T01:56:44;14.00;43.30
1367;DHT22;16877;48.810;9.282;2023-02-26T01:59:14;14.00;43.30
1367;DHT22;16877;48.810;9.282;2023-02-26T02:01:44;14.00;43.80
1367;DHT22;16877;48.810;9.282;2023-02-26T02:04:13;14.00;43.30
1367;DHT22;16877;48.810;9.282;2023-02-26T02:06:42;13.90;43.30
1367;DHT22;16877;48.810;9.282;2023-02-26T02:09:10;13.90;43.50
1367;DHT22;16877;48.810;9.282;2023-02-26T02:11:44;13.90;43.30
1367;DHT22;16877;48.810;9.282;2023-02-26T02:14:33;13.90;43.40
1367;DHT22;16877;48.810;9.282;2023-02-26T02:17:11;13.90;43.30
1367;DHT22;16877;48.810;9.282;2023-02-26T02:19:58;13.80;43.30
1367;DHT22;16877;48.810;9.282;2023-02-26T02:22:45;13.80;43.20
1367;DHT22;16877;48.810;9.282;2023-02-26T02:25:31;13.80;43.20
1367;DHT22;16877;48.810;9.282;2023-02-26T02:28:06;13.80;43.30
1367;DHT22;16877;48.810;9.282;2023-02-26T02:30:53;13.90;43.30
1367;DHT22;16877;48.810;9.282;2023-02-26T02:33:27;13.80;43.40
1367;DHT22;16877;48.810;9.282;2023-02-26T02:36:01;13.80;43.40
1367;DHT22;16877;48.810;9.282;2023-02-26T02:38:32;13.80;43.40
1367;DHT22;16877;48.810;9.282;2023-02-26T02:41:05;13.70;43.30
1367;DHT22;16877;48.810;9.282;2023-02-26T02:43:44;13.70;43.30
1367;DHT22;16877;48.810;9.282;2023-02-26T02:46:18;13.70;43.10
1367;DHT22;16877;48.810;9.282;2023-02-26T02:48:48;13.70;43.10
1367;DHT22;16877;48.810;9.282;2023-02-26T02:51:23;13.70;43.10
1367;DHT22;16877;48.810;9.282;2023-02-26T02:53:53;13.70;43.20
1367;DHT22;16877;48.810;9.282;2023-02-26T02:56:26;13.70;43.20
1367;DHT22;16877;48.810;9.282;2023-02-26T02:59:03;13.70;43.20
1367;DHT22;16877;48.810;9.282;2023-02-26T03:01:35;13.70;43.30
1367;DHT22;16877;48.810;9.282;2023-02-26T03:04:06;13.70;43.30
1367;DHT22;16877;48.810;9.282;2023-02-26T03:06:34;13.70;43.30
1367;DHT22;16877;48.810;9.282;2023-02-26T03:09:03;13.70;43.20
1367;DHT22;16877;48.810;9.282;2023-02-26T03:11:31;13.60;43.40
1367;DHT22;16877;48.810;9.282;2023-02-26T03:13:58;13.60;43.30
1367;DHT22;16877;48.810;9.282;2023-02-26T03:17:01;13.60;43.30
1367;DHT22;16877;48.810;9.282;2023-02-26T03:19:37;13.50;43.20
1367;DHT22;16877;48.810;9.282;2023-02-26T03:22:11;13.50;43.10
1367;DHT22;16877;48.810;9.282;2023-02-26T03:24:47;13.50;43.20
1367;DHT22;16877;48.810;9.282;2023-02-26T03:27:20;13.50;43.20
1367;DHT22;16877;48.810;9.282;2023-02-26T03:29:51;13.50;43.20
1367;DHT22;16877;48.810;9.282;2023-02-26T03:32:24;13.50;43.50
1367;DHT22;16877;48.810;9.282;2023-02-26T03:34:57;13.50;43.20
1367;DHT22;16877;48.810;9.282;2023-02-26T03:37:31;13.50;43.10
1367;DHT22;16877;48.810;9.282;2023-02-26T03:40:02;13.50;43.20
1367;DHT22;16877;48.810;9.282;2023-02-26T03:42:34;13.50;43.20
1367;DHT22;16877;48.810;9.282;2023-02-26T03:45:08;13.50;43.20
1367;DHT22;16877;48.810;9.282;2023-02-26T03:47:40;13.50;43.20
1367;DHT22;16877;48.810;9.282;2023-02-26T03:50:12;13.40;43.10
1367;DHT22;16877;48.810;9.282;2023-02-26T03:52:56;13.50;43.20
1367;DHT22;16877;48.810;9.282;2023-02-26T03:55:27;13.40;43.20
1367;DHT22;16877;48.810;9.282;2023-02-26T03:57:58;13.40;43.20
1367;DHT22;16877;48.810;9.282;2023-02-26T04:00:26;13.40;43.10
1367;DHT22;16877;48.810;9.282;2023-02-26T04:03:00;13.40;43.10
1367;DHT22;16877;48.810;9.282;2023-02-26T04:05:31;13.40;43.10
1367;DHT22;16877;48.810;9.282;2023-02-26T04:07:59;13.40;43.10
1367;DHT22;16877;48.810;9.282;2023-02-26T04:10:32;13.40;43.10
1367;DHT22;16877;48.810;9.282;2023-02-26T04:13:04;13.40;43.00
1367;DHT22;16877;48.810;9.282;2023-02-26T04:15:32;13.40;43.10
1367;DHT22;16877;48.810;9.282;2023-02-26T04:18:01;13.40;43.10
1367;DHT22;16877;48.810;9.282;2023-02-26T04:20:28;13.50;43.10
1367;DHT22;16877;48.810;9.282;2023-02-26T04:22:56;13.40;43.00
1367;DHT22;16877;48.810;9.282;2023-02-26T04:25:23;13.40;43.00
1367;DHT22;16877;48.810;9.282;2023-02-26T04:27:51;13.40;43.10
1367;DHT22;16877;48.810;9.282;2023-02-26T04:30:19;13.40;43.10
1367;DHT22;16877;48.810;9.282;2023-02-26T04:32:46;13.40;43.10
1367;DHT22;16877;48.810;9.282;2023-02-26T04:35:16;13.40;43.10
1367;DHT22;16877;48.810;9.282;2023-02-26T04:37:44;13.40;43.10
1367;DHT22;16877;48.810;9.282;2023-02-26T04:40:12;13.40;43.10
1367;DHT22;16877;48.810;9.282;2023-02-26T04:42:39;13.40;43.10
1367;DHT22;16877;48.810;9.282;2023-02-26T04:45:07;13.40;43.20
1367;DHT22;16877;48.810;9.282;2023-02-26T04:47:35;13.40;43.20
1367;DHT22;16877;48.810;9.282;2023-02-26T04:50:02;13.40;43.30
1367;DHT22;16877;48.810;9.282;2023-02-26T04:52:31;13.40;43.30
1367;DHT22;16877;48.810;9.282;2023-02-26T04:55:04;13.40;43.20
1367;DHT22;16877;48.810;9.282;2023-02-26T04:57:32;13.40;43.30
1367;DHT22;16877;48.810;9.282;2023-02-26T05:00:00;13.40;43.40
1367;DHT22;16877;48.810;9.282;2023-02-26T05:02:31;13.40;43.90
1367;DHT22;16877;48.810;9.282;2023-02-26T05:04:58;13.40;43.30
1367;DHT22;16877;48.810;9.282;2023-02-26T05:07:26;13.40;43.40
1367;DHT22;16877;48.810;9.282;2023-02-26T05:09:55;13.40;43.30
1367;DHT22;16877;48.810;9.282;2023-02-26T05:12:22;13.40;43.40
1367;DHT22;16877;48.810;9.282;2023-02-26T05:14:49;13.40;43.30
1367;DHT22;16877;48.810;9.282;2023-02-26T05:17:17;13.40;43.40
1367;DHT22;16877;48.810;9.282;2023-02-26T05:19:59;13.40;43.40
1367;DHT22;16877;48.810;9.282;2023-02-26T05:22:27;13.40;43.30
1367;DHT22;16877;48.810;9.282;2023-02-26T05:24:56;13.40;43.40
1367;DHT22;16877;48.810;9.282;2023-02-26T05:27:24;13.40;44.00
1367;DHT22;16877;48.810;9.282;2023-02-26T05:29:51;13.30;43.40
1367;DHT22;16877;48.810;9.282;2023-02-26T05:32:19;13.40;43.30
1367;DHT22;16877;48.810;9.282;2023-02-26T05:34:46;13.30;43.30
1367;DHT22;16877;48.810;9.282;2023-02-26T05:37:14;13.30;43.30
1367;DHT22;16877;48.810;9.282;2023-02-26T05:39:43;13.30;43.20
1367;DHT22;16877;48.810;9.282;2023-02-26T05:42:12;13.30;43.20
1367;DHT22;16877;48.810;9.282;2023-02-26T05:44:40;13.30;43.20
1367;DHT22;16877;48.810;9.282;2023-02-26T05:47:07;13.30;43.30
1367;DHT22;16877;48.810;9.282;2023-02-26T05:49:35;13.30;43.30
1367;DHT22;16877;48.810;9.282;2023-02-26T05:52:03;13.30;43.20
1367;DHT22;16877;48.810;9.282;2023-02-26T05:54:31;13.30;43.20
1367;DHT22;16877;48.810;9.282;2023-02-26T05:56:59;13.20;43.20
1367;DHT22;16877;48.810;9.282;2023-02-26T05:59:42;13.20;43.20
1367;DHT22;16877;48.810;9.282;2023-02-26T06:02:09;13.20;43.20
1367;DHT22;16877;48.810;9.282;2023-02-26T06:04:37;13.20;43.20
1367;DHT22;16877;48.810;9.282;2023-02-26T06:07:04;13.40;50.50
1367;DHT22;16877;48.810;9.282;2023-02-26T06:09:36;13.40;49.50
1367;DHT22;16877;48.810;9.282;2023-02-26T06:12:08;13.50;46.00
1367;DHT22;16877;48.810;9.282;2023-02-26T06:14:41;13.50;44.80
1367;DHT22;16877;48.810;9.282;2023-02-26T06:17:14;13.40;44.10
1367;DHT22;16877;48.810;9.282;2023-02-26T06:19:43;13.40;43.90
1367;DHT22;16877;48.810;9.282;2023-02-26T06:22:16;13.30;43.60
1367;DHT22;16877;48.810;9.282;2023-02-26T06:24:58;13.30;43.60
1367;DHT22;16877;48.810;9.282;2023-02-26T06:27:26;13.30;43.60
1367;DHT22;16877;48.810;9.282;2023-02-26T06:29:53;13.30;43.60
1367;DHT22;16877;48.810;9.282;2023-02-26T06:32:31;13.30;43.60
1367;DHT22;16877;48.810;9.282;2023-02-26T06:35:02;13.30;43.60
1367;DHT22;16877;48.810;9.282;2023-02-26T06:37:36;13.30;43.60
1367;DHT22;16877;48.810;9.282;2023-02-26T06:40:12;13.30;43.50
1367;DHT22;16877;48.810;9.282;2023-02-26T06:42:45;13.30;43.60
1367;DHT22;16877;48.810;9.282;2023-02-26T06:45:19;13.30;43.60
1367;DHT22;16877;48.810;9.282;2023-02-26T06:50:51;13.30;43.70
1367;DHT22;16877;48.810;9.282;2023-02-26T06:53:28;13.30;43.70
1367;DHT22;16877;48.810;9.282;2023-02-26T06:55:59;13.30;43.80
1367;DHT22;16877;48.810;9.282;2023-02-26T06:58:32;13.30;43.70
1367;DHT22;16877;48.810;9.282;2023-02-26T07:01:15;13.30;43.70
1367;DHT22;16877;48.810;9.282;2023-02-26T07:03:43;13.40;43.80
1367;DHT22;16877;48.810;9.282;2023-02-26T07:06:13;13.40;43.70
1367;DHT22;16877;48.810;9.282;2023-02-26T07:08:41;13.40;44.40
1367;DHT22;16877;48.810;9.282;2023-02-26T07:11:10;13.40;43.80
1367;DHT22;16877;48.810;9.282;2023-02-26T07:13:52;13.50;43.90
1367;DHT22;16877;48.810;9.282;2023-02-26T07:16:20;13.50;43.90
1367;DHT22;16877;48.810;9.282;2023-02-26T07:18:51;13.50;43.80
1367;DHT22;16877;48.810;9.282;2023-02-26T07:21:25;13.60;43.80
1367;DHT22;16877;48.810;9.282;2023-02-26T07:23:55;13.70;43.80
1367;DHT22;16877;48.810;9.282;2023-02-26T07:26:38;13.80;43.80
1367;DHT22;16877;48.810;9.282;2023-02-26T07:29:07;13.90;43.70
1367;DHT22;16877;48.810;9.282;2023-02-26T07:31:35;13.90;43.80
1367;DHT22;16877;48.810;9.282;2023-02-26T07:34:08;14.10;43.80
1367;DHT22;16877;48.810;9.282;2023-02-26T07:36:42;14.30;48.20
1367;DHT22;16877;48.810;9.282;2023-02-26T07:39:13;14.40;51.00
1367;DHT22;16877;48.810;9.282;2023-02-26T07:41:43;15.70;67.10
1367;DHT22;16877;48.810;9.282;2023-02-26T07:44:19;16.80;64.30
1367;DHT22;16877;48.810;9.282;2023-02-26T07:46:48;17.10;59.90
1367;DHT22;16877;48.810;9.282;2023-02-26T07:49:19;17.10;57.40
1367;DHT22;16877;48.810;9.282;2023-02-26T07:51:49;16.90;51.00
1367;DHT22;16877;48.810;9.282;2023-02-26T07:54:16;16.70;48.60
1367;DHT22;16877;48.810;9.282;2023-02-26T07:56:43;16.60;47.70
1367;DHT22;16877;48.810;9.282;2023-02-26T07:59:11;16.60;46.90
1367;DHT22;16877;48.810;9.282;2023-02-26T08:01:38;16.50;46.20
1367;DHT22;16877;48.810;9.282;2023-02-26T08:04:21;16.60;45.80
1367;DHT22;16877;48.810;9.282;2023-02-26T08:07:05;16.60;45.90
1367;DHT22;16877;48.810;9.282;2023-02-26T08:09:33;16.60;46.20
1367;DHT22;16877;48.810;9.282;2023-02-26T08:12:04;16.70;46.40
1367;DHT22;16877;48.810;9.282;2023-02-26T08:14:32;16.70;46.30
1367;DHT22;16877;48.810;9.282;2023-02-26T08:17:01;16.60;45.80
1367;DHT22;16877;48.810;9.282;2023-02-26T08:19:29;16.60;45.30
1367;DHT22;16877;48.810;9.282;2023-02-26T08:21:57;16.70;45.10
1367;DHT22;16877;48.810;9.282;2023-02-26T08:24:27;16.70;44.90
1367;DHT22;16877;48.810;9.282;2023-02-26T08:26:56;16.70;44.70
1367;DHT22;16877;48.810;9.282;2023-02-26T08:29:24;16.90;45.00
1367;DHT22;16877;48.810;9.282;2023-02-26T08:31:52;16.90;45.20
1367;DHT22;16877;48.810;9.282;2023-02-26T08:34:20;17.00;44.80
1367;DHT22;16877;48.810;9.282;2023-02-26T08:36:48;17.00;44.40
1367;DHT22;16877;48.810;9.282;2023-02-26T08:39:15;17.10;44.60
1367;DHT22;16877;48.810;9.282;2023-02-26T08:41:44;17.10;44.50
1367;DHT22;16877;48.810;9.282;2023-02-26T08:44:11;17.20;44.30
1367;DHT22;16877;48.810;9.282;2023-02-26T08:46:39;17.10;44.10
1367;DHT22;16877;48.810;9.282;2023-02-26T08:49:08;17.00;43.90
1367;DHT22;16877;48.810;9.282;2023-02-26T08:51:35;17.00;43.60
1367;DHT22;16877;48.810;9.282;2023-02-26T08:54:04;16.90;43.10
1367;DHT22;16877;48.810;9.282;2023-02-26T08:56:32;16.80;42.80
1367;DHT22;16877;48.810;9.282;2023-02-26T08:59:01;16.70;42.60
1367;DHT22;16877;48.810;9.282;2023-02-26T09:01:28;16.60;42.40
1367;DHT22;16877;48.810;9.282;2023-02-26T09:03:57;16.60;42.40
1367;DHT22;16877;48.810;9.282;2023-02-26T09:06:24;16.50;42.50
1367;DHT22;16877;48.810;9.282;2023-02-26T09:08:52;16.40;42.30
1367;DHT22;16877;48.810;9.282;2023-02-26T09:11:19;16.50;43.80
1367;DHT22;16877;48.810;9.282;2023-02-26T09:13:47;17.00;60.80
1367;DHT22;16877;48.810;9.282;2023-02-26T09:16:16;18.00;60.40
1367;DHT22;16877;48.810;9.282;2023-02-26T09:18:45;18.10;55.50
1367;DHT22;16877;48.810;9.282;2023-02-26T09:21:13;18.00;51.00
1367;DHT22;16877;48.810;9.282;2023-02-26T09:23:40;17.80;47.30
1367;DHT22;16877;48.810;9.282;2023-02-26T09:26:08;17.60;45.80
1367;DHT22;16877;48.810;9.282;2023-02-26T09:28:35;17.50;44.90
1367;DHT22;16877;48.810;9.282;2023-02-26T09:31:03;17.30;44.50
1367;DHT22;16877;48.810;9.282;2023-02-26T09:33:34;17.10;43.80
1367;DHT22;16877;48.810;9.282;2023-02-26T09:36:01;17.00;43.50
1367;DHT22;16877;48.810;9.282;2023-02-26T09:38:31;16.90;43.60
1367;DHT22;16877;48.810;9.282;2023-02-26T09:41:02;16.80;43.20
1367;DHT22;16877;48.810;9.282;2023-02-26T09:43:45;16.70;42.90
1367;DHT22;16877;48.810;9.282;2023-02-26T09:46:25;16.60;42.90
1367;DHT22;16877;48.810;9.282;2023-02-26T09:49:04;16.50;42.90
1367;DHT22;16877;48.810;9.282;2023-02-26T09:51:33;16.40;42.90
1367;DHT22;16877;48.810;9.282;2023-02-26T09:54:07;16.40;43.10
1367;DHT22;16877;48.810;9.282;2023-02-26T09:56:36;16.30;42.70
1367;DHT22;16877;48.810;9.282;2023-02-26T09:59:04;16.20;42.60
1367;DHT22;16877;48.810;9.282;2023-02-26T10:01:35;16.30;48.20
1367;DHT22;16877;48.810;9.282;2023-02-26T10:04:16;16.30;46.00
1367;DHT22;16877;48.810;9.282;2023-02-26T10:06:57;16.20;44.00
1367;DHT22;16877;48.810;9.282;2023-02-26T10:09:36;16.20;43.40
1367;DHT22;16877;48.810;9.282;2023-02-26T10:12:10;16.10;42.90
1367;DHT22;16877;48.810;9.282;2023-02-26T10:14:42;16.00;42.70
1367;DHT22;16877;48.810;9.282;2023-02-26T10:17:18;15.90;42.90
1367;DHT22;16877;48.810;9.282;2023-02-26T10:19:52;15.80;42.50
1367;DHT22;16877;48.810;9.282;2023-02-26T10:22:33;15.70;42.50
1367;DHT22;16877;48.810;9.282;2023-02-26T10:25:06;15.60;42.40
1367;DHT22;16877;48.810;9.282;2023-02-26T10:27:42;15.60;42.40
1367;DHT22;16877;48.810;9.282;2023-02-26T10:30:16;15.60;42.30
1367;DHT22;16877;48.810;9.282;2023-02-26T10:32:52;15.60;43.10
1367;DHT22;16877;48.810;9.282;2023-02-26T10:35:48;15.50;42.30
1367;DHT22;16877;48.810;9.282;2023-02-26T10:38:19;15.50;42.30
1367;DHT22;16877;48.810;9.282;2023-02-26T10:40:51;15.40;42.30
1367;DHT22;16877;48.810;9.282;2023-02-26T10:43:22;15.40;42.20
1367;DHT22;16877;48.810;9.282;2023-02-26T10:46:04;15.50;42.30
1367;DHT22;16877;48.810;9.282;2023-02-26T10:48:45;15.40;42.40
1367;DHT22;16877;48.810;9.282;2023-02-26T10:51:18;15.40;42.70
1367;DHT22;16877;48.810;9.282;2023-02-26T10:53:49;15.50;46.80
1367;DHT22;16877;48.810;9.282;2023-02-26T10:56:21;15.60;45.80
1367;DHT22;16877;48.810;9.282;2023-02-26T10:59:04;15.60;44.20
1367;DHT22;16877;48.810;9.282;2023-02-26T11:01:33;15.60;43.40
1367;DHT22;16877;48.810;9.282;2023-02-26T11:04:03;15.70;43.20
1367;DHT22;16877;48.810;9.282;2023-02-26T11:06:36;15.70;43.20
1367;DHT22;16877;48.810;9.282;2023-02-26T11:09:12;15.70;43.00
1367;DHT22;16877;48.810;9.282;2023-02-26T11:11:46;15.80;42.90
1367;DHT22;16877;48.810;9.282;2023-02-26T11:14:19;15.90;42.50
1367;DHT22;16877;48.810;9.282;2023-02-26T11:16:49;16.10;43.00
1367;DHT22;16877;48.810;9.282;2023-02-26T11:19:22;16.30;43.00
1367;DHT22;16877;48.810;9.282;2023-02-26T11:21:54;16.40;42.90
1367;DHT22;16877;48.810;9.282;2023-02-26T11:24:27;16.40;42.80
1367;DHT22;16877;48.810;9.282;2023-02-26T11:27:13;16.50;42.70
1367;DHT22;16877;48.810;9.282;2023-02-26T11:29:42;16.40;42.20
1367;DHT22;16877;48.810;9.282;2023-02-26T11:32:17;16.30;41.70
1367;DHT22;16877;48.810;9.282;2023-02-26T11:34:46;16.40;41.70
1367;DHT22;16877;48.810;9.282;2023-02-26T11:37:18;16.30;41.50
1367;DHT22;16877;48.810;9.282;2023-02-26T11:39:47;16.30;41.30
1367;DHT22;16877;48.810;9.282;2023-02-26T11:42:18;16.30;41.40
1367;DHT22;16877;48.810;9.282;2023-02-26T11:44:47;16.20;41.20
1367;DHT22;16877;48.810;9.282;2023-02-26T11:47:18;16.30;41.20
1367;DHT22;16877;48.810;9.282;2023-02-26T11:49:51;16.30;41.10
1367;DHT22;16877;48.810;9.282;2023-02-26T11:52:28;16.30;41.20
1367;DHT22;16877;48.810;9.282;2023-02-26T11:54:59;16.20;41.10
1367;DHT22;16877;48.810;9.282;2023-02-26T11:57:29;16.20;41.10
1367;DHT22;16877;48.810;9.282;2023-02-26T11:59:58;16.20;41.00
1367;DHT22;16877;48.810;9.282;2023-02-26T12:02:30;16.00;40.80
1367;DHT22;16877;48.810;9.282;2023-02-26T12:05:02;16.00;41.00
1367;DHT22;16877;48.810;9.282;2023-02-26T12:07:34;16.00;41.00
1367;DHT22;16877;48.810;9.282;2023-02-26T12:10:12;15.90;41.10
1367;DHT22;16877;48.810;9.282;2023-02-26T12:13:03;15.90;41.00
1367;DHT22;16877;48.810;9.282;2023-02-26T12:15:37;15.90;41.20
1367;DHT22;16877;48.810;9.282;2023-02-26T12:18:29;16.00;41.50
1367;DHT22;16877;48.810;9.282;2023-02-26T12:21:09;16.00;41.40
1367;DHT22;16877;48.810;9.282;2023-02-26T12:26:56;15.90;41.60
1367;DHT22;16877;48.810;9.282;2023-02-26T12:29:47;15.90;41.70
1367;DHT22;16877;48.810;9.282;2023-02-26T12:32:42;15.80;41.50
1367;DHT22;16877;48.810;9.282;2023-02-26T12:35:36;15.80;41.50
1367;DHT22;16877;48.810;9.282;2023-02-26T12:38:24;15.70;41.50
1367;DHT22;16877;48.810;9.282;2023-02-26T12:41:40;15.70;41.50
1367;DHT22;16877;48.810;9.282;2023-02-26T12:44:40;15.70;41.40
1367;DHT22;16877;48.810;9.282;2023-02-26T12:47:22;15.80;41.40
1367;DHT22;16877;48.810;9.282;2023-02-26T12:50:15;15.90;41.70
1367;DHT22;16877;48.810;9.282;2023-02-26T12:53:01;16.10;41.90
1367;DHT22;16877;48.810;9.282;2023-02-26T12:55:42;16.10;41.90
1367;DHT22;16877;48.810;9.282;2023-02-26T12:58:35;16.20;41.80
1367;DHT22;16877;48.810;9.282;2023-02-26T13:01:28;16.20;41.40
1367;DHT22;16877;48.810;9.282;2023-02-26T13:04:21;16.20;41.20
1367;DHT22;16877;48.810;9.282;2023-02-26T13:07:03;16.20;41.10
1367;DHT22;16877;48.810;9.282;2023-02-26T13:09:44;16.30;41.30
1367;DHT22;16877;48.810;9.282;2023-02-26T13:12:32;16.20;40.90
1367;DHT22;16877;48.810;9.282;2023-02-26T13:15:14;16.20;40.80
1367;DHT22;16877;48.810;9.282;2023-02-26T13:17:50;16.20;40.90
1367;DHT22;16877;48.810;9.282;2023-02-26T13:20:23;16.10;40.10
1367;DHT22;16877;48.810;9.282;2023-02-26T13:22:53;16.10;40.10
1367;DHT22;16877;48.810;9.282;2023-02-26T13:25:39;16.10;40.10
1367;DHT22;16877;48.810;9.282;2023-02-26T13:28:19;16.10;40.10
1367;DHT22;16877;48.810;9.282;2023-02-26T13:30:50;16.10;40.10
1367;DHT22;16877;48.810;9.282;2023-02-26T13:33:25;16.10;39.90
1367;DHT22;16877;48.810;9.282;2023-02-26T13:35:54;16.20;39.90
1367;DHT22;16877;48.810;9.282;2023-02-26T13:38:30;16.20;40.10
1367;DHT22;16877;48.810;9.282;2023-02-26T13:41:07;16.20;39.80
1367;DHT22;16877;48.810;9.282;2023-02-26T13:43:49;16.30;39.70
1367;DHT22;16877;48.810;9.282;2023-02-26T13:46:31;16.30;39.60
1367;DHT22;16877;48.810;9.282;2023-02-26T13:49:09;16.40;39.70
1367;DHT22;16877;48.810;9.282;2023-02-26T13:51:40;16.40;39.40
1367;DHT22;16877;48.810;9.282;2023-02-26T13:54:32;16.50;39.40
1367;DHT22;16877;48.810;9.282;2023-02-26T13:57:20;16.70;39.70
1367;DHT22;16877;48.810;9.282;2023-02-26T13:59:58;16.70;39.30
1367;DHT22;16877;48.810;9.282;2023-02-26T14:02:49;16.60;39.00
1367;DHT22;16877;48.810;9.282;2023-02-26T14:05:53;16.60;38.90
1367;DHT22;16877;48.810;9.282;2023-02-26T14:08:38;16.60;38.80
1367;DHT22;16877;48.810;9.282;2023-02-26T14:14:38;16.60;38.70
1367;DHT22;16877;48.810;9.282;2023-02-26T14:17:27;16.60;38.40
1367;DHT22;16877;48.810;9.282;2023-02-26T14:20:19;17.00;38.60
1367;DHT22;16877;48.810;9.282;2023-02-26T14:22:52;17.10;38.90
1367;DHT22;16877;48.810;9.282;2023-02-26T14:25:28;17.10;38.70
1367;DHT22;16877;48.810;9.282;2023-02-26T14:28:43;17.10;38.70
1367;DHT22;16877;48.810;9.282;2023-02-26T14:31:22;17.10;38.70
1367;DHT22;16877;48.810;9.282;2023-02-26T14:34:12;17.10;38.60
1367;DHT22;16877;48.810;9.282;2023-02-26T14:36:44;17.00;38.20
1367;DHT22;16877;48.810;9.282;2023-02-26T14:39:23;17.00;38.10
1367;DHT22;16877;48.810;9.282;2023-02-26T14:41:55;17.10;38.30
1367;DHT22;16877;48.810;9.282;2023-02-26T14:44:26;17.10;38.30
1367;DHT22;16877;48.810;9.282;2023-02-26T14:46:56;17.10;38.20
1367;DHT22;16877;48.810;9.282;2023-02-26T14:49:28;17.40;38.20
1367;DHT22;16877;48.810;9.282;2023-02-26T14:55:02;17.80;38.40
1367;DHT22;16877;48.810;9.282;2023-02-26T14:57:49;17.90;38.10
1367;DHT22;16877;48.810;9.282;2023-02-26T15:00:34;18.00;38.20
1367;DHT22;16877;48.810;9.282;2023-02-26T15:03:29;18.00;38.00
1367;DHT22;16877;48.810;9.282;2023-02-26T15:06:12;18.00;37.60
1367;DHT22;16877;48.810;9.282;2023-02-26T15:09:07;17.90;37.30
1367;DHT22;16877;48.810;9.282;2023-02-26T15:11:57;17.70;36.80
1367;DHT22;16877;48.810;9.282;2023-02-26T15:14:54;17.70;36.90
1367;DHT22;16877;48.810;9.282;2023-02-26T15:17:40;17.50;36.60
1367;DHT22;16877;48.810;9.282;2023-02-26T15:20:23;17.40;36.50
1367;DHT22;16877;48.810;9.282;2023-02-26T15:23:17;17.30;36.50
1367;DHT22;16877;48.810;9.282;2023-02-26T15:26:12;17.30;36.70
1367;DHT22;16877;48.810;9.282;2023-02-26T15:28:50;17.20;36.60
1367;DHT22;16877;48.810;9.282;2023-02-26T15:31:35;17.10;36.60
1367;DHT22;16877;48.810;9.282;2023-02-26T15:34:12;17.00;36.60
1367;DHT22;16877;48.810;9.282;2023-02-26T15:36:51;17.20;36.80
1367;DHT22;16877;48.810;9.282;2023-02-26T15:39:23;17.70;37.40
1367;DHT22;16877;48.810;9.282;2023-02-26T15:41:54;18.20;38.00
1367;DHT22;16877;48.810;9.282;2023-02-26T15:44:34;18.60;38.10
1367;DHT22;16877;48.810;9.282;2023-02-26T15:47:11;18.50;37.80
1367;DHT22;16877;48.810;9.282;2023-02-26T15:49:44;18.70;37.60
1367;DHT22;16877;48.810;9.282;2023-02-26T15:52:19;18.70;37.20
1367;DHT22;16877;48.810;9.282;2023-02-26T15:54:49;18.60;37.00
1367;DHT22;16877;48.810;9.282;2023-02-26T15:57:20;18.50;36.50
1367;DHT22;16877;48.810;9.282;2023-02-26T16:00:00;18.50;46.80
1367;DHT22;16877;48.810;9.282;2023-02-26T16:02:31;18.60;42.30
1367;DHT22;16877;48.810;9.282;2023-02-26T16:05:10;18.50;39.30
1367;DHT22;16877;48.810;9.282;2023-02-26T16:07:41;18.30;37.30
1367;DHT22;16877;48.810;9.282;2023-02-26T16:10:17;18.00;36.50
1367;DHT22;16877;48.810;9.282;2023-02-26T16:13:37;17.80;35.90
1367;DHT22;16877;48.810;9.282;2023-02-26T16:16:11;17.60;35.40
1367;DHT22;16877;48.810;9.282;2023-02-26T16:18:50;17.40;35.20
1367;DHT22;16877;48.810;9.282;2023-02-26T16:21:25;17.30;35.20
1367;DHT22;16877;48.810;9.282;2023-02-26T16:24:07;17.10;35.20
1367;DHT22;16877;48.810;9.282;2023-02-26T16:26:38;17.00;35.10
1367;DHT22;16877;48.810;9.282;2023-02-26T16:29:16;16.90;34.80
1367;DHT22;16877;48.810;9.282;2023-02-26T16:31:56;16.70;34.90
1367;DHT22;16877;48.810;9.282;2023-02-26T16:34:31;16.50;34.90
1367;DHT22;16877;48.810;9.282;2023-02-26T16:37:10;16.40;34.80
1367;DHT22;16877;48.810;9.282;2023-02-26T16:39:43;16.20;35.30
1367;DHT22;16877;48.810;9.282;2023-02-26T16:42:14;16.00;34.50
1367;DHT22;16877;48.810;9.282;2023-02-26T16:44:56;15.90;34.50